Time;durP1;ratioP1;P1;durP2;ratioP2;P2;SDS_P1;SDS_P2;PMS_P1;PMS_P2;Temp;Humidity;BMP_temperature;BMP_pressure;BME280_temperature;BME280_humidity;BME280_pressure;Samples;Min_cycle;Max_cycle;Signal;HPM_P1;HPM_P2
2021/05/13 00:01:22;;;;;;;12.03;8.63;;;;;;;18.88;100.00;97720.72;4276899;82;28538;-82
2021/05/13 00:07:23;;;;;;;13.30;9.43;;;;;;;18.87;100.00;97713.67;4253234;83;28492;-81
2021/05/13 00:13:25;;;;;;;13.38;10.13;;;;;;;18.89;100.00;97716.30;4274647;83;28554;-82
2021/05/13 00:19:26;;;;;;;13.72;9.55;;;;;;;18.86;100.00;97710.13;4285817;82;28495;-82
2021/05/13 00:25:28;;;;;;;13.35;9.75;;;;;;;18.80;100.00;97708.70;4264472;83;28501;-79
2021/05/13 00:31:30;;;;;;;15.35;10.68;;;;;;;18.80;100.00;97712.78;4240605;81;28578;-81
2021/05/13 00:37:31;;;;;;;19.15;11.22;;;;;;;18.73;100.00;97712.45;4285194;82;28529;-82
2021/05/13 00:43:33;;;;;;;20.25;10.58;;;;;;;18.57;100.00;97710.16;4310156;82;28559;-81
2021/05/13 00:49:34;;;;;;;16.37;10.78;;;;;;;18.59;100.00;97700.33;4297670;82;28485;-82
2021/05/13 00:55:38;;;;;;;17.20;11.03;;;;;;;18.49;100.00;97705.52;4283434;83;28494;-80
2021/05/13 01:07:47;;;;;;;17.77;10.63;;;;;;;18.45;100.00;97701.81;4271855;82;28516;-81
2021/05/13 01:14:01;;;;;;;17.80;11.48;;;;;;;18.35;100.00;97694.17;4269688;83;28627;-81
2021/05/13 01:20:00;;;;;;;19.40;11.05;;;;;;;18.30;100.00;97690.26;4300196;83;28498;-81
2021/05/13 01:26:05;;;;;;;16.62;10.10;;;;;;;17.97;100.00;97696.03;4301751;83;28601;-82
2021/05/13 01:32:07;;;;;;;18.25;12.13;;;;;;;17.75;100.00;97679.20;4301821;83;28490;-82
2021/05/13 01:38:12;;;;;;;18.80;12.58;;;;;;;17.56;100.00;97673.41;4301882;83;28549;-82
2021/05/13 01:44:13;;;;;;;22.22;12.37;;;;;;;17.34;100.00;97676.94;4262571;83;28497;-82
2021/05/13 01:50:14;;;;;;;18.15;10.82;;;;;;;17.41;100.00;97668.63;4270245;81;28587;-83
2021/05/13 01:56:16;;;;;;;11.60;7.20;;;;;;;17.56;100.00;97657.11;4259309;82;28540;-82
2021/05/13 02:02:21;;;;;;;15.40;6.90;;;;;;;16.76;100.00;97662.49;4266279;83;28592;-83
2021/05/13 02:08:21;;;;;;;12.73;5.87;;;;;;;16.98;100.00;97657.66;4275228;82;28573;-83
2021/05/13 02:14:22;;;;;;;14.13;6.10;;;;;;;17.08;100.00;97654.48;4309426;83;28514;-83
2021/05/13 02:20:24;;;;;;;12.65;5.28;;;;;;;16.88;100.00;97646.25;4291899;82;28517;-81
2021/05/13 02:26:26;;;;;;;14.53;6.00;;;;;;;16.93;100.00;97649.64;4287180;83;28531;-82
2021/05/13 02:32:27;;;;;;;10.05;5.83;;;;;;;17.04;100.00;97651.58;4271585;82;28479;-83
2021/05/13 02:38:28;;;;;;;10.32;5.78;;;;;;;16.92;100.00;97651.30;4264843;82;28508;-82
2021/05/13 02:44:30;;;;;;;12.37;6.83;;;;;;;17.17;100.00;97644.49;4310107;82;28655;-82
2021/05/13 02:50:31;;;;;;;13.15;7.42;;;;;;;17.10;100.00;97638.69;4275287;82;28469;-82
2021/05/13 02:56:33;;;;;;;13.68;6.90;;;;;;;16.77;100.00;97634.27;4270675;82;28493;-82
2021/05/13 03:02:34;;;;;;;11.63;6.35;;;;;;;17.15;100.00;97634.50;4266271;82;28541;-82
2021/05/13 03:08:35;;;;;;;15.00;7.22;;;;;;;17.18;100.00;97632.52;4260634;82;28585;-81
2021/05/13 03:14:38;;;;;;;11.48;6.05;;;;;;;17.21;99.96;97630.53;4309664;83;28540;-81
2021/05/13 03:20:42;;;;;;;12.80;7.60;;;;;;;17.41;95.69;97626.52;4309719;82;28543;-83
2021/05/13 03:32:53;;;;;;;11.43;6.15;;;;;;;17.50;92.57;97610.83;4307526;83;28510;-82
2021/05/13 03:38:54;;;;;;;10.85;6.47;;;;;;;17.29;90.75;97612.70;4292778;83;28478;-81
2021/05/13 03:44:55;;;;;;;10.43;5.90;;;;;;;17.56;89.50;97613.09;4303699;82;28560;-81
2021/05/13 03:50:57;;;;;;;13.62;5.75;;;;;;;17.81;85.37;97606.71;4292414;82;28486;-82
2021/05/13 03:56:59;;;;;;;13.78;6.75;;;;;;;17.31;85.71;97605.05;4285984;83;28541;-79
2021/05/13 04:03:00;;;;;;;11.85;6.62;;;;;;;17.35;82.52;97606.02;4301097;82;28473;-83
2021/05/13 04:09:11;;;;;;;12.85;6.00;;;;;;;17.38;83.57;97601.88;4293380;81;28482;-83
2021/05/13 04:15:12;;;;;;;8.18;5.90;;;;;;;17.60;80.68;97597.52;4300216;82;28595;-82
2021/05/13 04:21:13;;;;;;;9.35;5.08;;;;;;;17.44;80.16;97596.55;4287010;83;28551;-82
2021/05/13 04:27:15;;;;;;;13.60;5.12;;;;;;;17.10;79.69;97591.17;4301446;83;28502;-80
2021/05/13 04:33:16;;;;;;;10.95;5.10;;;;;;;17.27;79.58;97589.92;4287282;83;28481;-81
2021/05/13 04:39:17;;;;;;;11.08;4.58;;;;;;;17.53;76.72;97596.61;4268546;83;28480;-82
2021/05/13 04:45:19;;;;;;;8.10;4.67;;;;;;;17.51;74.64;97588.76;4301407;83;28498;-82
2021/05/13 04:51:27;;;;;;;9.83;5.00;;;;;;;17.48;72.71;97584.50;4273871;83;28564;-84
2021/05/13 04:57:28;;;;;;;8.90;4.65;;;;;;;18.01;68.88;97573.27;4232615;82;28502;-82
2021/05/13 05:03:29;;;;;;;9.48;4.40;;;;;;;17.19;70.46;97576.30;4251087;83;28535;-84
2021/05/13 05:09:31;;;;;;;8.95;4.45;;;;;;;17.47;68.36;97572.03;4250840;83;28473;-82
2021/05/13 05:15:32;;;;;;;12.25;5.12;;;;;;;17.97;65.32;97572.31;4252800;82;28595;-82
2021/05/13 05:21:33;;;;;;;9.50;4.30;;;;;;;18.28;65.72;97570.08;4251182;83;28491;-80
2021/05/13 05:27:35;;;;;;;15.75;5.75;;;;;;;18.69;61.76;97565.28;4248695;84;28587;-83
2021/05/13 05:33:36;;;;;;;10.78;5.40;;;;;;;18.75;60.91;97563.20;4246412;84;28543;-82
2021/05/13 05:39:38;;;;;;;9.93;6.20;;;;;;;18.89;59.27;97552.14;4242989;82;28547;-83
2021/05/13 05:45:39;;;;;;;11.05;5.75;;;;;;;18.84;59.48;97550.38;4235731;83;28559;-83
2021/05/13 05:51:40;;;;;;;20.88;10.32;;;;;;;18.86;58.89;97548.13;4242941;82;28539;-82
2021/05/13 05:57:42;;;;;;;23.57;8.23;;;;;;;18.43;61.10;97542.97;4289263;82;28538;-84
2021/05/13 06:03:43;;;;;;;19.00;7.83;;;;;;;18.39;61.60;97548.24;4285153;82;28551;-84
2021/05/13 06:09:45;;;;;;;15.30;6.30;;;;;;;18.62;60.44;97539.91;4257791;82;28572;-85
2021/05/13 06:15:46;;;;;;;13.22;5.72;;;;;;;18.93;60.86;97545.72;4283063;83;28491;-85
2021/05/13 06:21:48;;;;;;;18.07;6.90;;;;;;;19.11;60.11;97545.73;4283461;82;28529;-82
2021/05/13 06:27:50;;;;;;;18.37;6.22;;;;;;;19.20;60.19;97545.69;4270982;82;28573;-84
2021/05/13 06:33:51;;;;;;;12.28;5.75;;;;;;;19.07;60.75;97550.20;4276898;82;28506;-87
2021/05/13 06:39:52;;;;;;;17.77;6.70;;;;;;;19.42;60.12;97550.67;4291905;82;28597;-84
2021/05/13 06:45:54;;;;;;;14.45;6.65;;;;;;;18.92;60.39;97554.20;4298216;82;28611;-84
2021/05/13 06:51:55;;;;;;;16.10;7.40;;;;;;;19.11;60.46;97548.45;4271647;82;28689;-83
2021/05/13 06:57:57;;;;;;;15.30;7.20;;;;;;;18.99;61.80;97549.63;4277549;82;28568;-83
2021/05/13 07:03:58;;;;;;;15.40;7.42;;;;;;;19.05;61.26;97542.34;4333054;81;28623;-84
2021/05/13 07:09:59;;;;;;;16.75;7.45;;;;;;;19.59;60.14;97542.43;4327796;81;28542;-85
2021/05/13 07:16:00;;;;;;;19.00;8.03;;;;;;;19.75;60.28;97524.14;4339129;82;28553;-83
2021/05/13 07:22:02;;;;;;;18.05;8.03;;;;;;;19.89;61.44;97518.45;4325442;81;28495;-84
2021/05/13 07:28:04;;;;;;;19.40;8.75;;;;;;;20.10;59.17;97519.88;4261253;83;28676;-83
2021/05/13 07:34:05;;;;;;;20.95;8.80;;;;;;;19.75;62.72;97511.32;4261898;83;28527;-88
2021/05/13 07:40:10;;;;;;;23.22;11.00;;;;;;;19.97;61.99;97505.36;4254983;83;28568;-85
2021/05/13 07:46:12;;;;;;;22.40;9.50;;;;;;;20.08;61.92;97506.33;4260189;83;28619;-85
2021/05/13 07:52:14;;;;;;;21.55;10.25;;;;;;;20.11;61.02;97501.57;4258773;83;28502;-84
2021/05/13 07:58:15;;;;;;;19.25;9.58;;;;;;;20.06;63.97;97497.11;4274806;82;28573;-86
2021/05/13 08:04:17;;;;;;;22.48;10.78;;;;;;;20.51;60.45;97490.73;4267863;82;28527;-86
2021/05/13 08:10:19;;;;;;;16.97;9.58;;;;;;;20.57;61.06;97490.20;4268208;82;28509;-86
2021/05/13 08:16:21;;;;;;;21.55;9.88;;;;;;;20.80;59.73;97477.53;4273172;82;28569;-87
2021/05/13 08:22:22;;;;;;;19.85;9.30;;;;;;;21.05;60.42;97474.88;4268373;82;28585;-86
2021/05/13 08:28:24;;;;;;;20.90;10.08;;;;;;;21.05;60.27;97473.51;4283207;82;28482;-87
2021/05/13 08:34:25;;;;;;;22.75;10.85;;;;;;;20.99;59.48;97466.69;4261483;82;28493;-85
2021/05/13 08:40:27;;;;;;;19.82;10.58;;;;;;;21.23;58.38;97465.89;4279688;82;28500;-85
2021/05/13 08:46:28;;;;;;;24.63;11.53;;;;;;;21.50;59.66;97468.30;4281411;82;28530;-86
2021/05/13 08:52:30;;;;;;;19.30;10.38;;;;;;;21.48;58.53;97457.72;4267831;82;28490;-85
2021/05/13 08:58:31;;;;;;;19.20;11.12;;;;;;;21.96;57.88;97453.11;4273025;82;28617;-86
2021/05/13 09:04:49;;;;;;;20.17;11.22;;;;;;;22.10;57.84;97450.00;4273547;82;28510;-85
2021/05/13 09:10:50;;;;;;;21.75;11.30;;;;;;;22.56;56.55;97456.02;4268772;83;28515;-84
2021/05/13 09:16:51;;;;;;;17.73;10.50;;;;;;;22.60;56.10;97447.91;4264824;83;28545;-87
2021/05/13 09:23:15;;;;;;;20.10;10.85;;;;;;;22.91;56.42;97438.70;4283192;82;28593;-86
2021/05/13 09:29:19;;;;;;;20.15;10.75;;;;;;;22.98;55.90;97437.52;4247747;83;28513;-84
2021/05/13 09:35:24;;;;;;;13.65;9.40;;;;;;;22.88;55.64;97438.05;4271654;83;28535;-86
2021/05/13 09:41:31;;;;;;;17.52;10.45;;;;;;;23.78;54.01;97436.64;4292846;82;28505;-85
2021/05/13 09:47:34;;;;;;;20.23;11.00;;;;;;;24.23;49.66;97427.61;4284909;83;28587;-86
2021/05/13 09:53:38;;;;;;;21.40;11.70;;;;;;;24.28;50.60;97418.28;4259203;83;28506;-85
2021/05/13 09:59:40;;;;;;;16.07;10.60;;;;;;;24.18;49.67;97406.72;4271884;83;28544;-84
2021/05/13 10:05:50;;;;;;;18.23;10.50;;;;;;;24.65;50.96;97410.34;4272785;83;28494;-86
2021/05/13 10:11:58;;;;;;;16.77;10.25;;;;;;;25.11;48.16;97395.63;4269828;83;28559;-86
2021/05/13 10:18:04;;;;;;;16.80;10.20;;;;;;;25.29;46.44;97395.33;4279643;82;28640;-85
2021/05/13 10:24:07;;;;;;;19.20;10.68;;;;;;;25.59;46.41;97380.84;4269406;82;29044;-85
2021/05/13 10:30:14;;;;;;;18.42;10.72;;;;;;;25.46;45.76;97379.44;4282503;83;28563;-86
2021/05/13 10:36:19;;;;;;;18.77;10.50;;;;;;;25.22;46.93;97377.33;4256243;83;28551;-86
2021/05/13 10:42:32;;;;;;;19.20;11.53;;;;;;;25.83;44.20;97376.04;4297660;82;28588;-91
2021/05/13 10:48:43;;;;;;;19.30;9.88;;;;;;;25.99;44.84;97365.43;4269558;83;28561;-87
2021/05/13 10:54:47;;;;;;;20.17;10.32;;;;;;;26.11;45.09;97367.92;4260974;83;28521;-82
2021/05/13 11:00:48;;;;;;;25.20;10.40;;;;;;;25.84;45.55;97369.36;4257348;83;28577;-84
2021/05/13 11:07:12;;;;;;;19.40;10.03;;;;;;;25.64;47.08;97365.98;4251805;83;28610;-87
2021/05/13 11:13:15;;;;;;;20.77;10.68;;;;;;;25.56;47.04;97360.16;4239264;83;28594;-86
2021/05/13 11:19:24;;;;;;;20.52;11.35;;;;;;;25.67;45.75;97354.22;4241788;83;28563;-87
2021/05/13 11:25:44;;;;;;;19.20;11.73;;;;;;;25.94;46.12;97354.73;4268479;82;28615;-87
2021/05/13 11:31:51;;;;;;;19.32;10.50;;;;;;;25.67;47.62;97344.59;4255735;82;28471;-87
2021/05/13 11:37:54;;;;;;;20.48;11.35;;;;;;;25.86;47.31;97340.09;4251608;82;28554;-87
2021/05/13 11:43:56;;;;;;;19.15;11.55;;;;;;;25.87;47.63;97340.30;4293324;81;28498;-88
2021/05/13 11:49:57;;;;;;;17.48;11.15;;;;;;;25.64;48.53;97332.16;4289808;83;28519;-88
2021/05/13 11:56:00;;;;;;;19.82;10.48;;;;;;;26.05;47.77;97337.75;4304526;82;28541;-87
2021/05/13 12:02:02;;;;;;;20.55;12.28;;;;;;;25.73;47.73;97351.92;4341542;81;28626;-88
2021/05/13 12:08:07;;;;;;;21.87;12.98;;;;;;;25.11;48.50;97350.26;4319861;81;28480;-87
2021/05/13 12:14:13;;;;;;;19.10;11.38;;;;;;;25.48;47.59;97345.50;4331760;81;28525;-88
2021/05/13 12:20:14;;;;;;;18.07;10.47;;;;;;;26.12;45.33;97337.84;4344411;81;28507;-88
2021/05/13 12:26:25;;;;;;;14.95;9.70;;;;;;;26.40;46.24;97333.03;4335631;81;28535;-86
2021/05/13 12:32:31;;;;;;;16.80;9.63;;;;;;;26.64;45.43;97320.66;4244679;82;28572;-86
2021/05/13 12:38:34;;;;;;;15.63;9.50;;;;;;;26.54;45.93;97330.39;4268129;82;28526;-87
2021/05/13 12:44:36;;;;;;;14.53;9.65;;;;;;;25.99;46.98;97329.64;4261017;81;28565;-87
2021/05/13 12:50:38;;;;;;;15.78;9.08;;;;;;;25.83;47.71;97321.59;4255573;82;28520;-87
2021/05/13 12:56:40;;;;;;;17.07;10.63;;;;;;;25.79;48.15;97321.55;4257501;83;28553;-88
2021/05/13 13:02:41;;;;;;;17.82;10.15;;;;;;;25.42;48.49;97327.72;4259437;83;28574;-87
2021/05/13 13:08:48;;;;;;;15.35;9.90;;;;;;;25.02;51.09;97321.06;4247701;83;28514;-86
2021/05/13 13:14:53;;;;;;;16.85;10.75;;;;;;;25.14;51.35;97324.20;4290210;82;28500;-88
2021/05/13 13:20:54;;;;;;;17.57;10.13;;;;;;;25.02;52.04;97329.31;4248205;83;28533;-86
2021/05/13 13:27:00;;;;;;;16.97;10.95;;;;;;;25.04;53.06;97333.08;4262992;83;28514;-87
2021/05/13 13:33:21;;;;;;;19.15;10.13;;;;;;;24.57;55.02;97326.20;4239623;83;28515;-86
2021/05/13 13:39:24;;;;;;;16.05;9.90;;;;;;;24.57;55.02;97326.20;4243734;83;28516;-88
2021/05/13 13:45:26;;;;;;;19.90;12.25;;;;;;;24.43;56.95;97352.06;4246115;83;28508;-84
2021/05/13 13:51:27;;;;;;;18.67;12.03;;;;;;;23.78;63.28;97366.11;4250359;83;28504;-87
2021/05/13 13:57:28;;;;;;;11.33;7.87;;;;;;;23.50;64.47;97357.48;4254656;83;28561;-86
2021/05/13 14:03:30;;;;;;;12.00;7.28;;;;;;;23.18;62.26;97359.48;4265893;83;28538;-87
2021/05/13 14:09:32;;;;;;;9.10;6.20;;;;;;;21.87;67.62;97358.88;4245781;83;28524;-86
2021/05/13 14:15:33;;;;;;;8.70;4.60;;;;;;;21.23;67.94;97357.95;4250829;83;28470;-87
2021/05/13 14:21:35;;;;;;;3.37;2.72;;;;;;;21.65;64.97;97366.98;4348958;81;28488;-87
2021/05/13 14:27:37;;;;;;;4.40;2.80;;;;;;;21.47;61.75;97361.81;4318027;81;28527;-86
2021/05/13 14:33:39;;;;;;;5.17;2.70;;;;;;;21.55;61.16;97355.39;4283411;82;28482;-86
2021/05/13 14:39:40;;;;;;;4.83;2.47;;;;;;;21.32;62.13;97344.17;4283810;82;28489;-86
2021/05/13 14:45:41;;;;;;;4.47;2.60;;;;;;;21.09;64.49;97356.15;4278414;82;28931;-87
2021/05/13 14:51:43;;;;;;;5.80;2.80;;;;;;;20.31;70.50;97353.41;4288553;82;28541;-87
2021/05/13 14:57:46;;;;;;;3.30;2.40;;;;;;;20.21;72.79;97353.84;4257332;83;28603;-87
2021/05/13 15:03:48;;;;;;;5.60;2.40;;;;;;;20.00;71.41;97371.63;4201144;84;28508;-86
2021/05/13 15:09:49;;;;;;;4.75;2.45;;;;;;;20.08;71.75;97377.55;4231050;84;28480;-86
2021/05/13 15:15:50;;;;;;;4.03;2.70;;;;;;;20.20;73.84;97377.61;4188876;84;28513;-86
2021/05/13 15:21:52;;;;;;;4.75;2.80;;;;;;;20.27;75.35;97377.06;4216129;84;28488;-88
2021/05/13 15:27:53;;;;;;;7.05;3.37;;;;;;;20.37;76.34;97377.77;4219771;84;28545;-86
2021/05/13 15:33:54;;;;;;;8.58;4.37;;;;;;;20.11;80.97;97359.16;4235136;84;28589;-87
2021/05/13 15:39:57;;;;;;;7.62;4.97;;;;;;;20.47;80.23;97350.83;4220348;84;28492;-87
2021/05/13 15:45:58;;;;;;;7.70;5.10;;;;;;;20.71;79.49;97358.05;4224695;84;28542;-86
2021/05/13 15:52:00;;;;;;;7.85;5.20;;;;;;;20.76;80.72;97350.42;4222607;84;28525;-87
2021/05/13 15:58:03;;;;;;;12.05;5.90;;;;;;;20.97;81.64;97356.38;4242100;82;28570;-88
2021/05/13 16:04:04;;;;;;;8.30;5.78;;;;;;;20.86;82.18;97360.12;4272556;82;28501;-87
2021/05/13 16:10:07;;;;;;;9.93;6.08;;;;;;;20.91;82.60;97354.22;4258318;82;28516;-88
2021/05/13 16:16:08;;;;;;;8.28;5.55;;;;;;;20.93;81.25;97338.28;4255672;82;28583;-87
2021/05/13 16:22:11;;;;;;;8.05;4.80;;;;;;;20.80;80.66;97338.81;4248745;82;28521;-88
2021/05/13 16:28:12;;;;;;;8.50;4.70;;;;;;;20.59;81.55;97358.26;4253071;82;28550;-86
2021/05/13 16:34:13;;;;;;;10.85;5.60;;;;;;;20.48;82.22;97381.67;4240778;82;28483;-86
2021/05/13 16:40:16;;;;;;;8.98;5.25;;;;;;;20.65;79.72;97383.41;4249990;82;28551;-85
2021/05/13 16:46:17;;;;;;;9.43;5.50;;;;;;;20.70;79.36;97385.91;4213453;82;28545;-84
2021/05/13 16:52:18;;;;;;;9.55;5.67;;;;;;;20.74;81.83;97378.64;4227538;82;28535;-84
2021/05/13 17:04:37;;;;;;;9.10;6.05;;;;;;;20.70;85.97;97373.62;4379369;79;86849;-91
2021/05/13 17:10:37;;;;;;;10.18;6.33;;;;;;;20.41;90.86;97377.31;4325542;81;28504;-83
2021/05/13 17:16:39;;;;;;;10.70;6.30;;;;;;;20.26;95.13;97376.83;4327310;80;28512;-84
2021/05/13 17:22:42;;;;;;;8.03;5.20;;;;;;;20.34;91.08;97377.88;4320661;81;28571;-84
2021/05/13 17:28:44;;;;;;;10.45;5.42;;;;;;;20.30;92.18;97385.93;4326810;81;28565;-89
2021/05/13 17:34:48;;;;;;;9.03;5.83;;;;;;;20.34;95.33;97381.38;4315817;81;28547;-85
2021/05/13 17:40:49;;;;;;;11.15;5.55;;;;;;;20.03;99.75;97392.19;4334587;81;28487;-87
2021/05/13 17:46:52;;;;;;;12.85;5.97;;;;;;;20.33;92.94;97395.38;4312199;80;28558;-84
2021/05/13 17:52:53;;;;;;;10.10;6.67;;;;;;;19.88;98.56;97402.32;4319786;80;28539;-87
2021/05/13 17:58:55;;;;;;;11.75;6.55;;;;;;;19.75;100.00;97404.17;4311075;80;28519;-87
2021/05/13 18:04:57;;;;;;;9.05;6.22;;;;;;;19.95;100.00;97399.09;4254560;83;28542;-88
2021/05/13 18:10:59;;;;;;;9.68;6.42;;;;;;;19.85;100.00;97407.09;4249715;83;28503;-85
2021/05/13 18:17:00;;;;;;;9.55;5.83;;;;;;;19.36;100.00;97408.36;4234430;83;28619;-85
2021/05/13 18:23:04;;;;;;;11.70;6.53;;;;;;;19.32;100.00;97408.21;4333530;81;28500;-85
2021/05/13 18:29:06;;;;;;;10.15;6.55;;;;;;;19.58;100.00;97412.72;4324952;82;28567;-85
2021/05/13 18:35:08;;;;;;;13.35;6.12;;;;;;;19.58;100.00;97419.53;4323863;82;28498;-85
2021/05/13 18:41:09;;;;;;;10.95;7.10;;;;;;;19.39;100.00;97424.04;4308566;82;28495;-86
2021/05/13 18:47:11;;;;;;;11.20;7.08;;;;;;;19.22;100.00;97429.83;4319171;82;28553;-85
2021/05/13 18:53:12;;;;;;;11.38;6.90;;;;;;;19.03;100.00;97430.22;4312456;82;28547;-84
2021/05/13 18:59:15;;;;;;;10.20;6.62;;;;;;;18.84;100.00;97428.41;4308278;81;28517;-83
2021/05/13 19:05:17;;;;;;;9.78;6.53;;;;;;;19.08;100.00;97434.69;4334936;81;28589;-82
2021/05/13 19:11:19;;;;;;;11.70;6.55;;;;;;;19.08;100.00;97442.30;4323516;81;28471;-82
2021/05/13 19:17:21;;;;;;;10.82;7.37;;;;;;;18.97;100.00;97451.93;4173090;83;28545;-83
2021/05/13 19:23:22;;;;;;;13.08;7.35;;;;;;;18.99;100.00;97455.13;4203358;84;28500;-82
2021/05/13 19:29:41;;;;;;;10.65;7.45;;;;;;;18.88;100.00;97464.19;4222174;84;28563;-84
2021/05/13 19:35:33;;;;;;;13.80;7.70;;;;;;;18.99;100.00;97469.29;4203714;84;28560;-83
2021/05/13 19:41:36;;;;;;;13.90;6.95;;;;;;;19.00;100.00;97468.16;4329872;81;28544;-84
2021/05/13 19:47:39;;;;;;;12.43;7.37;;;;;;;18.95;100.00;97474.03;4326561;81;28527;-82
2021/05/13 19:53:40;;;;;;;10.53;7.15;;;;;;;18.81;100.00;97470.14;4336865;81;28541;-85
2021/05/13 19:59:42;;;;;;;11.90;7.15;;;;;;;18.55;100.00;97478.36;4352247;81;28531;-84
2021/05/13 20:12:08;;;;;;;10.72;7.17;;;;;;;18.37;100.00;97470.20;4195077;84;28479;-84
2021/05/13 20:18:10;;;;;;;12.60;7.95;;;;;;;18.42;100.00;97476.04;4207590;82;28533;-82
2021/05/13 20:24:12;;;;;;;12.53;7.45;;;;;;;18.38;100.00;97477.27;4188031;83;28499;-84
2021/05/13 20:30:19;;;;;;;15.03;9.10;;;;;;;18.36;100.00;97490.37;4193763;84;28941;-85
2021/05/13 20:36:20;;;;;;;14.98;8.40;;;;;;;18.35;100.00;97498.30;4184364;84;28556;-84
2021/05/13 20:42:22;;;;;;;14.90;8.23;;;;;;;18.45;100.00;97507.26;4208106;84;28557;-85
2021/05/13 20:48:29;;;;;;;12.60;8.08;;;;;;;18.42;100.00;97506.55;4209509;82;28621;-83
2021/05/13 21:00:33;;;;;;;12.90;7.33;;;;;;;18.56;100.00;97521.35;4157510;82;28540;-86
2021/05/13 21:06:43;;;;;;;10.72;6.87;;;;;;;18.57;100.00;97513.42;4198304;82;28533;-84
2021/05/13 21:12:54;;;;;;;12.10;7.15;;;;;;;18.56;100.00;97513.97;4212033;83;28494;-85
2021/05/13 21:25:31;;;;;;;10.50;7.00;;;;;;;18.62;100.00;97500.45;4022931;86;28494;-84
2021/05/13 21:31:25;;;;;;;;;;;;;;;18.62;100.00;97501.81;4193611;82;28556;-84
2021/05/13 21:37:27;;;;;;;9.78;6.78;;;;;;;18.49;100.00;97494.63;4201064;82;20236;-84
2021/05/13 21:43:30;;;;;;;9.80;7.00;;;;;;;18.45;100.00;97490.93;4191794;83;28536;-84
2021/05/13 21:49:39;;;;;;;12.28;7.35;;;;;;;18.48;100.00;97491.09;4198792;83;28496;-85
2021/05/13 21:55:34;;;;;;;15.08;8.50;;;;;;;18.45;100.00;97482.77;4185992;84;28515;-84
2021/05/13 22:01:35;;;;;;;12.82;8.90;;;;;;;18.29;100.00;97481.91;4226961;82;28578;-84
2021/05/13 22:07:37;;;;;;;11.68;7.70;;;;;;;18.18;100.00;97477.91;4160994;83;28516;-86
2021/05/13 22:13:39;;;;;;;12.07;8.48;;;;;;;18.19;100.00;97484.38;4183015;83;28481;-84
2021/05/13 22:19:45;;;;;;;13.90;9.08;;;;;;;18.33;100.00;97479.36;4198979;84;28561;-84
2021/05/13 22:25:46;;;;;;;15.90;9.40;;;;;;;18.21;100.00;97488.14;4203702;84;28600;-84
2021/05/13 22:31:48;;;;;;;15.68;9.53;;;;;;;18.16;100.00;97489.65;4186529;83;28524;-85
2021/05/13 22:37:50;;;;;;;17.45;10.13;;;;;;;18.27;100.00;97488.20;4187338;84;28533;-85
2021/05/13 22:43:52;;;;;;;17.15;10.28;;;;;;;18.00;100.00;97487.92;4180298;84;28584;-83
2021/05/13 22:49:56;;;;;;;14.38;9.18;;;;;;;18.08;100.00;97492.61;4196144;84;28502;-86
2021/05/13 22:56:06;;;;;;;13.38;8.68;;;;;;;18.06;100.00;97500.29;4190234;84;28501;-85
2021/05/13 23:01:59;;;;;;;12.55;7.97;;;;;;;17.86;100.00;97497.03;4181246;82;28568;-84
2021/05/13 23:08:02;;;;;;;10.63;6.55;;;;;;;17.88;100.00;97500.23;4188756;84;28517;-84
2021/05/13 23:14:28;;;;;;;9.80;7.00;;;;;;;17.78;100.00;97498.63;4186587;83;28490;-84
2021/05/13 23:20:20;;;;;;;10.53;6.85;;;;;;;17.61;100.00;97492.59;4191885;84;28499;-83
2021/05/13 23:26:23;;;;;;;10.65;6.45;;;;;;;17.46;100.00;97497.08;4172987;83;28517;-85
2021/05/13 23:32:24;;;;;;;11.78;7.53;;;;;;;17.59;100.00;97496.73;4174069;84;28477;-84
2021/05/13 23:38:26;;;;;;;8.38;6.35;;;;;;;17.33;100.00;97489.28;4193333;84;28522;-84
2021/05/13 23:44:27;;;;;;;10.50;6.83;;;;;;;17.38;100.00;97489.94;4202980;84;28497;-84
2021/05/13 23:50:28;;;;;;;9.63;7.05;;;;;;;17.32;100.00;97495.28;4170254;84;28491;-84
2021/05/13 23:56:30;;;;;;;10.60;6.75;;;;;;;17.30;100.00;97492.63;4190248;84;28540;-85
